Avioradar koristi kolačiće da bi Vam omogućio jednostavnije i ugodnije korištenje stranice. 

AVIORADAR - Hrvatski zrakoplovni portal

METAR & TAF

[Source: ADDS]
METAR
LDZA 230830Z VRB02KT CAVOK 30/17 Q1015 NOSIG =
LDZA 230525Z 2306/2406 26004KT CAVOK TX34/2314Z TN20/2403Z BECMG 2310/2312 04006KT BECMG 2317/2319 VRB02KT LDSP 230830Z 12003KT 070V190 CAVOK 33/15 Q1014 BECMG FM0900 23008KT =
LDSP 230525Z 2306/2406 VRB02KT CAVOK TX34/2314Z TN23/2403Z BECMG 2309/2311 23008KT BECMG 2315/2317 VRB02KT LDDU 230830Z 23005KT 170V270 CAVOK 33/13 Q1015 NOSIG =
LDDU 230525Z 2306/2406 10004KT CAVOK TX32/2314Z TN22/2403Z TEMPO 2307/2311 16010KT BECMG 2310/2312 28008KT BECMG 2317/2319 08005KT LDPL 230830Z 12004KT 040V200 9999 FEW015 28/22 Q1015 NOSIG =
LDPL 230525Z 2306/2406 09005KT CAVOK TX32/2314Z TN21/2403Z TEMPO 2309/2317 12008KT LDZD 230830Z 22008KT 170V250 CAVOK 32/16 Q1015 NOSIG =
LDZD 230525Z 2306/2406 12005KT CAVOK TX34/2313Z TN19/2403Z TEMPO 2309/2318 23008KT LDRI 230830Z 28005KT 200V310 CAVOK 29/18 Q1015 =
LDRI 230525Z 2306/2406 VRB02KT CAVOK TX33/2314Z TN23/2403Z PROB40 TEMPO 2310/2318 32008KT LDOS 230830Z 29004KT 240V340 CAVOK 32/15 Q1015 =
LDOS 230525Z 2306/2406 26007KT CAVOK TX34/2314Z TN18/2403Z BECMG 2317/2319 09005KT
TAF
LDZA 230525Z 2306/2406 26004KT CAVOK TX34/2314Z TN20/2403Z BECMG 2310/2312 04006KT BECMG 2317/2319 VRB02KT =
LDSP 230525Z 2306/2406 VRB02KT CAVOK TX34/2314Z TN23/2403Z BECMG 2309/2311 23008KT BECMG 2315/2317 VRB02KT =
LDDU 230525Z 2306/2406 10004KT CAVOK TX32/2314Z TN22/2403Z TEMPO 2307/2311 16010KT BECMG 2310/2312 28008KT BECMG 2317/2319 08005KT =
LDPL 230525Z 2306/2406 09005KT CAVOK TX32/2314Z TN21/2403Z TEMPO 2309/2317 12008KT =
LDZD 230525Z 2306/2406 12005KT CAVOK TX34/2313Z TN19/2403Z TEMPO 2309/2318 23008KT =
LDRI 230525Z 2306/2406 VRB02KT CAVOK TX33/2314Z TN23/2403Z PROB40 TEMPO 2310/2318 32008KT =
LDOS 230525Z 2306/2406 26007KT CAVOK TX34/2314Z TN18/2403Z BECMG 2317/2319 09005KT =
SR / SS: 03:06 / 18:49 UTC (Zagreb 2021-06-23)